Time;durP1;ratioP1;P1;durP2;ratioP2;P2;SDS_P1;SDS_P2;PMS_P1;PMS_P2;Temp;Humidity;BMP_temperature;BMP_pressure;BME280_temperature;BME280_humidity;BME280_pressure;Samples;Min_cycle;Max_cycle;Signal;HPM_P1;HPM_P2
2021/07/01 00:01:10;;;;;;;22.55;13.75;;;19.40;90.60;;;;;;3560723;40;20034;-74
2021/07/01 00:03:36;;;;;;;18.98;14.20;;;19.40;90.40;;;;;;3559687;40;20044;-76
2021/07/01 00:06:01;;;;;;;19.60;14.20;;;19.40;90.50;;;;;;3559818;40;20041;-75
2021/07/01 00:08:27;;;;;;;21.10;14.10;;;19.30;90.40;;;;;;3560851;40;20146;-74
2021/07/01 00:10:53;;;;;;;16.63;13.18;;;19.30;90.50;;;;;;3561926;40;20041;-76
2021/07/01 00:13:19;;;;;;;16.90;12.43;;;19.40;90.60;;;;;;3564708;40;20048;-74
2021/07/01 00:15:45;;;;;;;22.30;13.82;;;19.40;90.60;;;;;;3565088;40;20021;-74
2021/07/01 00:18:10;;;;;;;17.80;13.30;;;19.30;90.60;;;;;;3567595;40;20030;-76
2021/07/01 00:20:36;;;;;;;26.15;14.35;;;19.40;90.60;;;;;;3567584;40;20849;-76
2021/07/01 00:23:02;;;;;;;17.98;12.75;;;19.30;90.60;;;;;;3566568;40;20061;-79
2021/07/01 00:25:29;;;;;;;23.85;14.55;;;19.30;90.60;;;;;;3566720;40;20136;-77
2021/07/01 00:27:55;;;;;;;20.20;13.18;;;19.30;90.60;;;;;;3563992;40;20047;-76
2021/07/01 00:30:21;;;;;;;23.55;14.13;;;19.30;90.60;;;;;;3564085;40;20759;-74
2021/07/01 00:32:48;;;;;;;22.23;14.27;;;19.30;90.60;;;;;;3566110;40;20053;-76
2021/07/01 00:35:14;;;;;;;26.63;15.65;;;19.30;90.60;;;;;;3566750;40;20099;-75
2021/07/01 00:37:40;;;;;;;23.65;14.35;;;19.30;90.60;;;;;;3569159;40;20033;-73
2021/07/01 00:40:09;;;;;;;22.92;15.18;;;19.30;90.60;;;;;;3561404;40;20014;-73
2021/07/01 00:42:35;;;;;;;20.60;14.52;;;19.30;90.60;;;;;;3562363;40;20038;-73
2021/07/01 00:45:01;;;;;;;22.08;15.38;;;19.30;90.50;;;;;;3563443;40;20127;-75
2021/07/01 00:47:27;;;;;;;21.90;14.05;;;19.30;90.50;;;;;;3564579;40;20069;-75
2021/07/01 00:49:53;;;;;;;20.05;14.60;;;19.30;90.50;;;;;;3565977;40;20048;-76
2021/07/01 00:52:19;;;;;;;21.50;14.50;;;19.30;90.60;;;;;;3566666;40;20044;-73
2021/07/01 00:54:45;;;;;;;23.48;14.38;;;19.30;90.40;;;;;;3568340;40;20926;-73
2021/07/01 00:57:11;;;;;;;22.23;14.23;;;19.30;90.50;;;;;;3567483;40;20045;-72
2021/07/01 00:59:38;;;;;;;28.67;15.50;;;19.30;90.50;;;;;;3563417;40;20118;-74
2021/07/01 01:02:07;;;;;;;20.40;14.70;;;19.30;90.40;;;;;;3563572;40;20021;-74
2021/07/01 01:04:34;;;;;;;24.02;14.77;;;19.30;90.40;;;;;;3562396;40;20037;-74
2021/07/01 01:07:02;;;;;;;23.50;15.32;;;19.30;90.40;;;;;;3561198;40;20110;-75
2021/07/01 01:09:28;;;;;;;20.83;14.40;;;19.30;90.30;;;;;;3558936;40;20114;-74
2021/07/01 01:11:54;;;;;;;24.17;13.90;;;19.30;90.30;;;;;;3559467;40;20099;-74
2021/07/01 01:14:22;;;;;;;24.70;14.38;;;19.30;90.30;;;;;;3559914;40;20056;-74
2021/07/01 01:16:54;;;;;;;21.70;13.93;;;19.30;90.40;;;;;;3562812;40;20067;-76
2021/07/01 01:19:19;;;;;;;24.17;14.55;;;19.30;90.40;;;;;;3564846;40;20049;-76
2021/07/01 01:21:48;;;;;;;20.02;13.02;;;19.30;90.20;;;;;;3563882;40;20061;-76
2021/07/01 01:24:15;;;;;;;24.02;13.40;;;19.30;90.30;;;;;;3566090;40;20134;-75
2021/07/01 01:26:41;;;;;;;20.13;12.60;;;19.30;90.30;;;;;;3567988;40;20049;-75
2021/07/01 01:29:07;;;;;;;21.88;13.63;;;19.30;90.40;;;;;;3568850;40;20041;-73
2021/07/01 01:31:36;;;;;;;17.92;12.55;;;19.30;90.30;;;;;;3567381;40;20038;-73
2021/07/01 01:34:02;;;;;;;20.50;13.00;;;19.30;90.30;;;;;;3564348;40;20040;-76
2021/07/01 01:36:28;;;;;;;18.83;12.15;;;19.30;90.30;;;;;;3564835;40;20536;-75
2021/07/01 01:38:55;;;;;;;16.33;11.85;;;19.20;90.30;;;;;;3562548;40;20086;-76
2021/07/01 01:41:30;;;;;;;20.58;11.82;;;19.20;90.30;;;;;;3560807;40;20315;-76
2021/07/01 01:43:58;;;;;;;16.58;11.38;;;19.30;90.30;;;;;;3561478;40;20038;-71
2021/07/01 01:46:32;;;;;;;17.60;11.73;;;19.30;90.30;;;;;;3561034;40;20029;-71
2021/07/01 01:48:58;;;;;;;16.05;10.85;;;19.30;90.40;;;;;;3562709;40;20039;-71
2021/07/01 01:51:24;;;;;;;16.02;11.13;;;19.30;90.30;;;;;;3564745;40;20680;-69
2021/07/01 01:53:57;;;;;;;18.00;11.60;;;19.30;90.30;;;;;;3564392;40;20033;-70
2021/07/01 01:56:23;;;;;;;15.35;11.32;;;19.30;90.20;;;;;;3567407;40;20544;-69
2021/07/01 01:58:50;;;;;;;16.15;11.07;;;19.30;90.10;;;;;;3567337;40;20033;-69
2021/07/01 02:01:54;;;;;;;21.52;11.75;;;19.30;90.20;;;;;;3569169;40;20048;-71
2021/07/01 02:04:31;;;;;;;15.45;11.15;;;19.30;90.30;;;;;;3563774;40;20045;-71
2021/07/01 02:06:57;;;;;;;17.30;12.00;;;19.30;90.20;;;;;;3563628;40;20694;-71
2021/07/01 02:09:32;;;;;;;17.77;11.70;;;19.30;90.20;;;;;;3563939;40;20034;-69
2021/07/01 02:11:58;;;;;;;17.15;11.60;;;19.20;90.30;;;;;;3567803;40;20036;-69
2021/07/01 02:14:23;;;;;;;16.17;11.65;;;19.20;90.30;;;;;;3566363;40;20025;-69
2021/07/01 02:17:00;;;;;;;17.20;11.48;;;19.20;90.40;;;;;;3567886;40;20444;-69
2021/07/01 02:19:27;;;;;;;17.60;12.20;;;19.30;90.50;;;;;;3562132;40;20037;-69
2021/07/01 02:21:53;;;;;;;14.38;11.15;;;19.20;90.50;;;;;;3566160;40;20048;-69
2021/07/01 02:24:18;;;;;;;18.20;11.82;;;19.30;90.60;;;;;;3565062;40;20140;-70
2021/07/01 02:26:44;;;;;;;20.00;12.23;;;19.20;90.50;;;;;;3565779;40;20029;-69
2021/07/01 02:29:11;;;;;;;16.98;11.40;;;19.20;90.60;;;;;;3564547;40;20100;-69
2021/07/01 02:32:09;;;;;;;16.65;11.27;;;19.20;90.70;;;;;;3558982;40;20049;-69
2021/07/01 02:34:40;;;;;;;18.13;12.13;;;19.20;90.50;;;;;;3567270;40;20115;-71
2021/07/01 02:37:25;;;;;;;18.92;10.52;;;19.10;90.70;;;;;;3563112;40;20098;-69
2021/07/01 02:40:17;;;;;;;15.48;10.73;;;19.10;90.90;;;;;;3562109;40;20106;-69
2021/07/01 02:42:57;;;;;;;21.30;11.70;;;19.00;91.10;;;;;;3564638;40;20068;-68
2021/07/01 02:45:24;;;;;;;17.30;10.98;;;19.00;91.10;;;;;;3567335;40;20026;-69
2021/07/01 02:47:54;;;;;;;13.57;10.35;;;19.00;90.90;;;;;;3566966;40;20041;-69
2021/07/01 02:50:21;;;;;;;15.85;9.65;;;19.00;91.00;;;;;;3568195;40;20089;-68
2021/07/01 02:52:47;;;;;;;13.10;8.98;;;18.90;91.10;;;;;;3568732;40;20123;-68
2021/07/01 02:55:13;;;;;;;12.02;8.27;;;18.90;91.20;;;;;;3565265;40;20037;-68
2021/07/01 02:57:39;;;;;;;11.48;8.32;;;18.90;91.40;;;;;;3564005;40;20017;-68
2021/07/01 03:00:11;;;;;;;11.40;7.72;;;18.80;91.50;;;;;;3565401;40;20135;-68
2021/07/01 03:02:54;;;;;;;13.25;8.02;;;18.80;91.40;;;;;;3570493;40;20139;-68
2021/07/01 03:05:38;;;;;;;8.35;6.50;;;18.80;91.10;;;;;;3562758;40;20052;-68
2021/07/01 03:08:04;;;;;;;8.55;6.45;;;18.80;91.20;;;;;;3563354;40;20034;-68
2021/07/01 03:10:30;;;;;;;9.15;6.38;;;18.70;91.20;;;;;;3560543;40;20730;-68
2021/07/01 03:13:00;;;;;;;7.57;5.95;;;18.70;91.20;;;;;;3563138;40;20037;-68
2021/07/01 03:15:27;;;;;;;8.75;6.30;;;18.70;91.30;;;;;;3564066;40;20049;-68
2021/07/01 03:17:53;;;;;;;9.00;6.07;;;18.70;91.20;;;;;;3566337;40;20037;-68
2021/07/01 03:20:26;;;;;;;8.77;6.35;;;18.70;91.60;;;;;;3566187;40;20632;-67
2021/07/01 03:23:25;;;;;;;11.57;7.35;;;18.70;91.40;;;;;;3557994;40;20030;-68
2021/07/01 03:25:51;;;;;;;12.82;8.15;;;18.70;91.30;;;;;;3560447;40;20044;-68
2021/07/01 03:28:16;;;;;;;12.45;8.50;;;18.70;91.10;;;;;;3565096;40;20276;-68
2021/07/01 03:30:43;;;;;;;10.38;7.18;;;18.70;91.10;;;;;;3562495;40;20033;-68
2021/07/01 03:33:09;;;;;;;8.27;6.20;;;18.70;91.20;;;;;;3566744;40;20049;-68
2021/07/01 03:35:36;;;;;;;6.78;5.43;;;18.70;91.10;;;;;;3565398;40;20045;-69
2021/07/01 03:38:21;;;;;;;6.75;4.55;;;18.60;91.10;;;;;;3569808;40;20040;-69
2021/07/01 03:41:00;;;;;;;7.30;4.28;;;18.60;90.90;;;;;;3568620;40;20033;-68
2021/07/01 03:43:26;;;;;;;5.40;3.60;;;18.50;90.80;;;;;;3564387;40;20041;-69
2021/07/01 03:45:56;;;;;;;4.97;3.55;;;18.50;90.80;;;;;;3566683;40;20029;-69
2021/07/01 03:48:23;;;;;;;6.03;3.85;;;18.40;90.90;;;;;;3564742;40;20598;-68
2021/07/01 03:51:09;;;;;;;5.57;3.40;;;18.40;90.90;;;;;;3565018;40;20107;-68
2021/07/01 03:53:44;;;;;;;4.30;2.90;;;18.40;90.90;;;;;;3562513;40;20275;-68
2021/07/01 03:56:12;;;;;;;7.15;2.88;;;18.40;90.50;;;;;;3563025;40;20045;-68
2021/07/01 03:58:37;;;;;;;7.15;2.63;;;18.40;90.60;;;;;;3567809;40;20042;-69
2021/07/01 04:01:23;;;;;;;7.53;2.37;;;18.30;90.60;;;;;;3567312;40;20134;-68
2021/07/01 04:03:49;;;;;;;3.53;2.60;;;18.30;90.90;;;;;;3564408;40;20056;-68
2021/07/01 04:06:17;;;;;;;3.60;2.50;;;18.20;90.50;;;;;;3563813;40;20057;-69
2021/07/01 04:08:42;;;;;;;3.22;2.03;;;18.20;90.50;;;;;;3563205;40;20190;-68
2021/07/01 04:11:10;;;;;;;4.15;1.80;;;18.20;90.70;;;;;;3561482;40;20044;-69
2021/07/01 04:13:37;;;;;;;3.08;2.05;;;18.10;90.50;;;;;;3568474;40;20089;-68
2021/07/01 04:16:21;;;;;;;2.38;2.10;;;18.10;90.60;;;;;;3562011;40;20099;-69
2021/07/01 04:19:13;;;;;;;1.88;1.60;;;18.00;90.60;;;;;;3555320;40;20076;-69
2021/07/01 04:22:02;;;;;;;2.45;1.55;;;18.00;90.70;;;;;;3551337;40;20099;-69
2021/07/01 04:24:33;;;;;;;1.90;1.40;;;18.00;90.70;;;;;;3568622;40;20072;-69
2021/07/01 04:27:26;;;;;;;1.35;1.23;;;17.90;90.70;;;;;;3562122;40;20087;-69
2021/07/01 04:29:53;;;;;;;1.50;1.40;;;17.90;90.70;;;;;;3567183;40;20081;-69
2021/07/01 04:32:21;;;;;;;1.65;1.45;;;17.90;90.90;;;;;;3561568;40;20044;-69
2021/07/01 04:34:49;;;;;;;2.20;1.35;;;17.90;90.90;;;;;;3563320;40;20794;-69
2021/07/01 04:37:16;;;;;;;1.58;1.40;;;17.80;90.90;;;;;;3566463;40;20707;-69
2021/07/01 04:39:49;;;;;;;1.20;1.10;;;17.80;91.10;;;;;;3565006;40;20037;-69
2021/07/01 04:42:20;;;;;;;1.25;1.05;;;17.80;90.70;;;;;;3558863;40;20034;-69
2021/07/01 04:44:46;;;;;;;1.42;1.30;;;17.80;90.80;;;;;;3566166;40;20059;-69
2021/07/01 04:47:13;;;;;;;1.55;1.40;;;17.80;90.80;;;;;;3567334;40;20144;-69
2021/07/01 04:49:43;;;;;;;1.42;1.33;;;17.70;90.90;;;;;;3567017;40;20044;-69
2021/07/01 04:52:32;;;;;;;1.60;1.35;;;17.70;90.90;;;;;;3560364;40;20072;-69
2021/07/01 04:55:17;;;;;;;4.00;1.25;;;17.70;91.00;;;;;;3565220;40;20047;-69
2021/07/01 04:58:01;;;;;;;1.98;1.20;;;17.70;91.10;;;;;;3567551;40;20271;-69
2021/07/01 05:00:28;;;;;;;1.52;1.10;;;17.70;91.00;;;;;;3568890;40;20033;-69
2021/07/01 05:03:16;;;;;;;1.67;1.50;;;17.70;91.00;;;;;;3564594;40;20048;-69
2021/07/01 05:05:42;;;;;;;1.60;1.40;;;17.70;91.00;;;;;;3566583;40;20029;-69
2021/07/01 05:08:09;;;;;;;1.63;1.38;;;17.70;90.90;;;;;;3566261;40;20310;-69
2021/07/01 05:10:36;;;;;;;1.60;1.50;;;17.70;90.60;;;;;;3565598;40;20041;-73
2021/07/01 05:13:07;;;;;;;1.30;1.13;;;17.70;90.70;;;;;;3565226;40;20583;-74
2021/07/01 05:15:33;;;;;;;4.88;1.35;;;17.60;90.60;;;;;;3567155;40;20029;-73
2021/07/01 05:18:03;;;;;;;3.45;1.55;;;17.60;90.50;;;;;;3567435;40;20500;-74
2021/07/01 05:20:29;;;;;;;2.92;1.08;;;17.60;90.40;;;;;;3569114;40;20401;-74
2021/07/01 05:23:14;;;;;;;2.03;1.50;;;17.50;90.70;;;;;;3563569;40;20060;-73
2021/07/01 05:26:06;;;;;;;1.00;0.98;;;17.50;90.10;;;;;;3553591;40;20840;-74
2021/07/01 05:28:50;;;;;;;1.85;1.30;;;17.50;90.30;;;;;;3565173;40;20040;-74
2021/07/01 05:31:35;;;;;;;2.38;1.25;;;17.40;90.20;;;;;;3567971;40;20551;-73
2021/07/01 05:34:19;;;;;;;1.45;1.20;;;17.40;90.20;;;;;;3560872;40;20437;-74
2021/07/01 05:36:46;;;;;;;1.98;1.20;;;17.30;90.50;;;;;;3563158;40;20040;-74
2021/07/01 05:39:16;;;;;;;1.92;1.08;;;17.30;90.60;;;;;;3560472;40;20037;-74
2021/07/01 05:41:44;;;;;;;1.63;1.30;;;17.30;90.80;;;;;;3563373;40;20036;-75
2021/07/01 05:44:10;;;;;;;1.98;1.20;;;17.30;90.80;;;;;;3563992;40;20065;-74
2021/07/01 05:46:50;;;;;;;3.63;1.50;;;17.30;90.90;;;;;;3562222;40;20077;-74
2021/07/01 05:49:15;;;;;;;2.20;1.48;;;17.20;90.90;;;;;;3562391;40;20038;-74
2021/07/01 05:51:43;;;;;;;6.35;1.70;;;17.30;91.10;;;;;;3566763;40;20041;-74
2021/07/01 05:56:43;;;;;;;1.45;1.30;;;17.30;91.10;;;;;;3566724;40;20057;-74
2021/07/01 05:59:09;;;;;;;3.03;1.80;;;17.30;90.80;;;;;;3566678;40;20025;-74
2021/07/01 06:01:37;;;;;;;1.60;1.50;;;17.30;91.00;;;;;;3566983;40;20031;-74
2021/07/01 06:04:05;;;;;;;1.98;1.50;;;17.30;91.10;;;;;;3566895;40;20033;-74
2021/07/01 06:07:03;;;;;;;1.77;1.30;;;17.30;91.00;;;;;;3541982;40;20060;-74
2021/07/01 06:09:34;;;;;;;1.77;1.42;;;17.30;91.10;;;;;;3563937;40;20089;-74
2021/07/01 06:12:00;;;;;;;1.30;1.20;;;17.30;91.20;;;;;;3563420;40;20328;-73
2021/07/01 06:14:28;;;;;;;1.83;1.30;;;17.30;90.90;;;;;;3566184;40;20040;-75
2021/07/01 06:16:56;;;;;;;1.40;1.27;;;17.30;90.80;;;;;;3563908;40;20033;-74
2021/07/01 06:19:22;;;;;;;1.63;1.20;;;17.30;90.70;;;;;;3562211;40;20029;-74
2021/07/01 06:21:50;;;;;;;1.33;1.23;;;17.30;90.90;;;;;;3564069;40;20033;-74
2021/07/01 06:24:16;;;;;;;1.58;1.33;;;17.30;90.80;;;;;;3564761;40;20469;-74
2021/07/01 06:26:43;;;;;;;1.52;1.10;;;17.30;90.80;;;;;;3568701;40;20033;-74
2021/07/01 06:29:11;;;;;;;5.82;2.13;;;17.30;90.90;;;;;;3567267;40;20810;-74
2021/07/01 06:31:37;;;;;;;2.30;1.73;;;17.30;90.70;;;;;;3564897;40;20037;-75
2021/07/01 06:34:03;;;;;;;3.50;1.10;;;17.30;90.70;;;;;;3565003;40;20407;-74
2021/07/01 06:36:32;;;;;;;1.10;1.00;;;17.30;90.50;;;;;;3565635;40;20864;-75
2021/07/01 06:39:25;;;;;;;0.80;0.80;;;17.30;90.50;;;;;;3554236;40;20052;-74
2021/07/01 06:42:22;;;;;;;0.75;0.75;;;17.30;90.70;;;;;;3541062;40;20412;-74
2021/07/01 06:45:21;;;;;;;1.95;1.10;;;17.30;90.50;;;;;;3547266;40;20389;-73
2021/07/01 06:48:08;;;;;;;1.85;1.05;;;17.40;90.60;;;;;;3565411;40;20055;-72
2021/07/01 06:51:12;;;;;;;2.05;1.00;;;17.30;90.40;;;;;;3524549;40;20094;-74
2021/07/01 06:54:13;;;;;;;2.03;1.30;;;17.30;90.50;;;;;;3490365;40;20136;-74
2021/07/01 06:56:58;;;;;;;2.35;2.10;;;17.30;90.60;;;;;;3554082;40;20049;-74
2021/07/01 06:59:26;;;;;;;1.88;1.50;;;17.30;90.60;;;;;;3557407;40;20041;-72
2021/07/01 07:01:53;;;;;;;1.30;1.17;;;17.40;90.70;;;;;;3562361;40;20092;-71
2021/07/01 07:04:18;;;;;;;0.88;0.88;;;17.40;90.70;;;;;;3564235;40;20040;-71
2021/07/01 07:06:46;;;;;;;0.70;0.70;;;17.40;90.30;;;;;;3563227;40;20030;-71
2021/07/01 07:09:13;;;;;;;0.70;0.70;;;17.40;90.40;;;;;;3565300;40;20026;-72
2021/07/01 07:11:39;;;;;;;1.27;0.93;;;17.40;90.50;;;;;;3567255;40;20418;-70
2021/07/01 07:14:05;;;;;;;1.88;0.90;;;17.40;90.40;;;;;;3567036;40;20069;-71
2021/07/01 07:16:34;;;;;;;1.73;1.02;;;17.50;90.40;;;;;;3560022;40;20750;-71
2021/07/01 07:19:02;;;;;;;2.33;1.13;;;17.50;90.40;;;;;;3560869;40;20056;-71
2021/07/01 07:21:33;;;;;;;1.15;1.05;;;17.50;90.40;;;;;;3565275;40;20782;-68
2021/07/01 07:24:02;;;;;;;1.55;1.20;;;17.50;90.40;;;;;;3563082;40;20785;-67
2021/07/01 07:26:28;;;;;;;1.52;1.10;;;17.50;90.20;;;;;;3564375;40;20026;-68
2021/07/01 07:28:55;;;;;;;0.90;0.90;;;17.50;90.20;;;;;;3560297;40;20139;-67
2021/07/01 07:31:28;;;;;;;2.42;1.83;;;17.50;90.10;;;;;;3567913;40;20779;-68
2021/07/01 07:33:56;;;;;;;2.55;1.63;;;17.50;90.30;;;;;;3568662;40;20126;-67
2021/07/01 07:36:24;;;;;;;1.95;1.67;;;17.50;90.00;;;;;;3568031;40;20033;-68
2021/07/01 07:38:54;;;;;;;1.35;1.23;;;17.50;90.20;;;;;;3563583;40;20045;-67
2021/07/01 07:41:21;;;;;;;2.22;1.40;;;17.50;90.10;;;;;;3565211;40;20025;-68
2021/07/01 07:43:48;;;;;;;2.22;1.50;;;17.40;90.40;;;;;;3562573;40;20726;-66
2021/07/01 07:46:18;;;;;;;1.30;1.20;;;17.50;90.50;;;;;;3560870;40;20095;-67
2021/07/01 07:48:45;;;;;;;1.90;1.38;;;17.50;90.20;;;;;;3561852;40;20033;-68
2021/07/01 07:51:15;;;;;;;1.52;1.23;;;17.40;90.10;;;;;;3562290;40;20029;-69
2021/07/01 07:53:41;;;;;;;1.35;1.23;;;17.40;90.20;;;;;;3565851;40;20039;-67
2021/07/01 07:56:10;;;;;;;1.60;1.50;;;17.40;90.30;;;;;;3566280;40;20577;-70
2021/07/01 07:58:46;;;;;;;4.55;1.33;;;17.40;90.30;;;;;;3565167;40;20701;-71
2021/07/01 08:01:12;;;;;;;1.27;1.13;;;17.40;90.00;;;;;;3561919;40;20026;-67
2021/07/01 08:03:41;;;;;;;1.50;1.40;;;17.30;90.00;;;;;;3558459;40;20092;-70
2021/07/01 08:06:08;;;;;;;3.65;1.30;;;17.30;90.30;;;;;;3562301;40;20029;-74
2021/07/01 08:08:41;;;;;;;1.35;1.23;;;17.30;90.30;;;;;;3566820;40;20819;-74
2021/07/01 08:11:09;;;;;;;1.77;1.25;;;17.30;90.30;;;;;;3562851;40;20048;-73
2021/07/01 08:13:36;;;;;;;1.60;1.50;;;17.40;90.30;;;;;;3565572;40;20030;-73
2021/07/01 08:16:04;;;;;;;1.35;1.25;;;17.40;90.30;;;;;;3566492;40;20186;-73
2021/07/01 08:18:41;;;;;;;1.65;1.35;;;17.40;90.20;;;;;;3568059;40;20056;-73
2021/07/01 08:21:12;;;;;;;1.52;1.20;;;17.40;89.80;;;;;;3559436;40;20955;-73
2021/07/01 08:23:39;;;;;;;2.03;1.35;;;17.40;89.70;;;;;;3562501;40;20056;-73
2021/07/01 08:26:05;;;;;;;2.78;2.17;;;17.30;89.80;;;;;;3562611;40;20449;-72
2021/07/01 08:28:31;;;;;;;1.77;1.67;;;17.30;90.10;;;;;;3564564;40;20044;-72
2021/07/01 08:31:04;;;;;;;2.10;1.90;;;17.40;90.10;;;;;;3564615;40;20037;-73
2021/07/01 08:33:35;;;;;;;4.43;1.58;;;17.40;90.20;;;;;;3567263;40;20438;-73
2021/07/01 08:36:02;;;;;;;2.90;2.25;;;17.40;90.30;;;;;;3566553;40;20034;-73
2021/07/01 08:38:33;;;;;;;3.45;2.10;;;17.40;90.30;;;;;;3559802;40;20100;-73
2021/07/01 08:41:11;;;;;;;1.98;1.77;;;17.50;89.90;;;;;;3561979;40;20391;-72
2021/07/01 08:43:52;;;;;;;1.75;1.65;;;17.40;89.50;;;;;;3562394;40;20034;-73
2021/07/01 08:46:36;;;;;;;4.05;1.83;;;17.40;89.90;;;;;;3564144;40;20033;-73
2021/07/01 08:49:04;;;;;;;1.23;1.15;;;17.40;89.70;;;;;;3566147;40;20024;-72
2021/07/01 08:51:46;;;;;;;2.58;1.75;;;17.40;89.20;;;;;;3567210;40;20107;-71
2021/07/01 08:54:22;;;;;;;2.33;1.75;;;17.40;90.10;;;;;;3563119;40;20065;-73
2021/07/01 08:56:48;;;;;;;1.50;1.40;;;17.50;90.40;;;;;;3560549;40;20114;-71
2021/07/01 08:59:17;;;;;;;1.60;1.42;;;17.50;90.30;;;;;;3561784;40;20032;-71
2021/07/01 09:02:07;;;;;;;1.80;1.70;;;17.60;90.20;;;;;;3565123;40;20038;-71
2021/07/01 09:04:54;;;;;;;1.30;1.20;;;17.60;88.50;;;;;;3564513;40;20076;-73
2021/07/01 09:07:25;;;;;;;1.60;1.23;;;17.50;89.90;;;;;;3561710;40;20055;-71
2021/07/01 09:09:52;;;;;;;3.10;1.52;;;17.50;89.90;;;;;;3567767;40;20021;-72
2021/07/01 09:12:25;;;;;;;2.03;1.90;;;17.50;89.90;;;;;;3564324;40;20111;-71
2021/07/01 09:14:57;;;;;;;2.42;2.22;;;17.50;89.50;;;;;;3564379;40;20661;-72
2021/07/01 09:17:29;;;;;;;2.50;2.30;;;17.50;90.00;;;;;;3564370;40;20044;-70
2021/07/01 09:19:56;;;;;;;5.45;3.08;;;17.50;90.10;;;;;;3564411;40;20123;-72
2021/07/01 09:22:27;;;;;;;3.15;2.45;;;17.40;89.70;;;;;;3567993;40;20134;-71
2021/07/01 09:24:54;;;;;;;3.17;2.63;;;17.40;89.40;;;;;;3565384;40;20042;-72
2021/07/01 09:27:21;;;;;;;4.75;2.65;;;17.40;89.50;;;;;;3562216;40;20602;-72
2021/07/01 09:29:48;;;;;;;2.80;2.28;;;17.40;89.20;;;;;;3558758;40;20323;-72
2021/07/01 09:32:20;;;;;;;2.83;2.45;;;17.40;89.30;;;;;;3563400;40;20055;-67
2021/07/01 09:34:48;;;;;;;3.20;2.20;;;17.40;89.80;;;;;;3564441;40;20033;-71
2021/07/01 09:37:14;;;;;;;2.72;2.47;;;17.40;88.60;;;;;;3565437;40;20033;-71
2021/07/01 09:39:40;;;;;;;3.92;2.90;;;17.40;88.50;;;;;;3564486;40;20493;-72
2021/07/01 09:42:07;;;;;;;3.15;2.30;;;17.40;89.40;;;;;;3566118;40;20311;-72
2021/07/01 09:44:35;;;;;;;3.60;3.30;;;17.50;89.40;;;;;;3567943;40;20580;-72
2021/07/01 09:47:05;;;;;;;2.97;2.50;;;17.50;88.90;;;;;;3561882;40;20537;-69
2021/07/01 09:49:37;;;;;;;2.83;2.47;;;17.40;89.40;;;;;;3563465;40;20040;-72
2021/07/01 09:52:14;;;;;;;3.85;2.90;;;17.50;89.60;;;;;;3562661;40;20032;-73
2021/07/01 09:54:49;;;;;;;2.55;2.35;;;17.50;88.70;;;;;;3560986;40;20021;-72
2021/07/01 09:57:24;;;;;;;4.95;2.55;;;17.50;88.80;;;;;;3564919;40;20025;-72
2021/07/01 09:59:54;;;;;;;3.83;3.03;;;17.60;88.80;;;;;;3567189;40;20114;-72
2021/07/01 10:02:22;;;;;;;2.72;2.53;;;17.50;88.70;;;;;;3563004;40;20071;-73
2021/07/01 10:04:48;;;;;;;4.45;3.53;;;17.50;89.30;;;;;;3566524;40;20048;-72
2021/07/01 10:07:16;;;;;;;5.28;3.60;;;17.50;88.60;;;;;;3564547;40;20175;-72
2021/07/01 10:09:44;;;;;;;3.90;3.50;;;17.50;88.60;;;;;;3565008;40;20038;-72
2021/07/01 10:12:20;;;;;;;3.85;3.55;;;17.50;88.70;;;;;;3565668;40;20130;-73
2021/07/01 10:14:47;;;;;;;3.92;3.40;;;17.50;88.40;;;;;;3565988;40;20110;-73
2021/07/01 10:17:15;;;;;;;4.20;3.78;;;17.50;88.30;;;;;;3561726;40;20681;-73
2021/07/01 10:19:42;;;;;;;5.38;4.40;;;17.50;88.30;;;;;;3568492;40;20422;-73
2021/07/01 10:22:10;;;;;;;5.25;4.30;;;17.50;88.80;;;;;;3561600;40;20041;-73
2021/07/01 10:24:54;;;;;;;4.78;4.38;;;17.50;89.10;;;;;;3563861;40;20043;-73
2021/07/01 10:27:41;;;;;;;5.63;5.00;;;17.50;89.00;;;;;;3562882;40;20107;-73
2021/07/01 10:30:18;;;;;;;4.90;4.15;;;17.50;88.60;;;;;;3565202;40;20029;-73
2021/07/01 10:32:47;;;;;;;8.60;5.05;;;17.50;89.30;;;;;;3560039;40;20041;-73
2021/07/01 10:35:31;;;;;;;5.05;4.55;;;17.60;89.10;;;;;;3560724;40;20038;-72
2021/07/01 10:37:58;;;;;;;5.28;4.80;;;17.60;89.20;;;;;;3567113;40;20018;-72
2021/07/01 10:40:24;;;;;;;6.35;4.82;;;17.70;89.60;;;;;;3563620;40;20025;-73
2021/07/01 10:42:52;;;;;;;5.97;5.38;;;17.70;88.70;;;;;;3563402;40;20414;-71
2021/07/01 10:45:18;;;;;;;5.57;5.07;;;17.70;89.00;;;;;;3564713;40;20144;-71
2021/07/01 10:47:46;;;;;;;5.50;4.93;;;17.70;88.00;;;;;;3562285;40;20033;-69
2021/07/01 10:50:22;;;;;;;6.45;4.80;;;17.70;88.20;;;;;;3559480;40;20040;-68
2021/07/01 10:52:48;;;;;;;5.47;4.97;;;17.70;88.80;;;;;;3561336;40;20049;-71
2021/07/01 10:55:16;;;;;;;5.00;4.50;;;17.70;88.90;;;;;;3565535;40;20484;-72
2021/07/01 10:57:56;;;;;;;5.10;4.53;;;17.70;89.10;;;;;;3563233;40;20047;-71
2021/07/01 11:00:42;;;;;;;5.55;5.00;;;17.80;89.90;;;;;;3563661;40;20026;-69
2021/07/01 11:03:12;;;;;;;5.43;4.50;;;17.80;90.00;;;;;;3565167;40;20041;-71
2021/07/01 11:05:38;;;;;;;4.85;4.35;;;17.90;89.50;;;;;;3559603;40;20411;-71
2021/07/01 11:08:05;;;;;;;4.63;4.10;;;17.90;89.10;;;;;;3564509;40;20178;-70
2021/07/01 11:10:33;;;;;;;5.18;4.22;;;17.90;88.90;;;;;;3564886;40;20033;-69
2021/07/01 11:13:06;;;;;;;6.18;4.25;;;17.90;89.20;;;;;;3561880;40;20036;-69
2021/07/01 11:15:32;;;;;;;5.43;4.20;;;18.00;89.10;;;;;;3564173;40;20040;-70
2021/07/01 11:18:11;;;;;;;4.30;3.90;;;18.10;88.70;;;;;;3564070;40;20040;-69
2021/07/01 11:20:37;;;;;;;4.72;4.15;;;18.00;88.60;;;;;;3563579;40;20041;-70
2021/07/01 11:23:03;;;;;;;5.13;4.03;;;18.00;88.20;;;;;;3557607;40;20079;-71
2021/07/01 11:25:34;;;;;;;5.88;4.65;;;18.00;88.20;;;;;;3567220;40;20029;-66
2021/07/01 11:28:30;;;;;;;5.28;4.10;;;18.00;87.80;;;;;;3564164;40;20128;-66
2021/07/01 11:31:02;;;;;;;4.63;4.03;;;18.00;88.80;;;;;;3561674;40;20176;-67
2021/07/01 11:33:31;;;;;;;4.07;3.70;;;18.00;88.70;;;;;;3564473;40;20881;-66
2021/07/01 11:36:15;;;;;;;4.60;3.85;;;18.10;89.00;;;;;;3563153;40;20094;-67
2021/07/01 11:38:43;;;;;;;5.43;4.65;;;18.10;88.50;;;;;;3559256;40;20054;-67
2021/07/01 11:41:09;;;;;;;4.72;3.80;;;18.10;88.40;;;;;;3562185;40;20024;-67
2021/07/01 11:43:40;;;;;;;4.43;3.95;;;18.10;88.10;;;;;;3565516;40;20131;-67
2021/07/01 11:46:06;;;;;;;4.70;4.30;;;18.10;88.00;;;;;;3565389;40;20590;-67
2021/07/01 11:48:34;;;;;;;6.63;4.65;;;18.10;87.60;;;;;;3564475;40;20160;-69
2021/07/01 11:51:02;;;;;;;5.20;4.72;;;18.00;88.00;;;;;;3564704;40;20045;-67
2021/07/01 11:53:29;;;;;;;5.30;4.80;;;18.00;87.50;;;;;;3566977;40;20037;-67
2021/07/01 11:55:57;;;;;;;7.03;5.07;;;18.00;87.70;;;;;;3559433;40;20030;-66
2021/07/01 11:58:25;;;;;;;6.40;4.85;;;18.00;88.30;;;;;;3567398;40;20033;-66
2021/07/01 12:00:52;;;;;;;6.22;4.93;;;18.00;88.80;;;;;;3562110;40;20037;-67
2021/07/01 12:03:18;;;;;;;6.55;5.22;;;18.00;89.20;;;;;;3567014;40;20024;-66
2021/07/01 12:05:50;;;;;;;5.68;5.18;;;18.00;89.20;;;;;;3565752;40;20033;-68
2021/07/01 12:08:16;;;;;;;5.20;4.70;;;18.10;89.40;;;;;;3565450;40;20194;-68
2021/07/01 12:10:44;;;;;;;5.57;4.97;;;18.10;89.10;;;;;;3566711;40;20454;-67
2021/07/01 12:13:31;;;;;;;5.53;4.55;;;18.20;89.00;;;;;;3567509;40;20106;-67
2021/07/01 12:16:02;;;;;;;5.20;4.70;;;18.20;88.00;;;;;;3563399;40;20060;-65
2021/07/01 12:18:48;;;;;;;5.25;4.75;;;18.20;88.80;;;;;;3562111;40;20076;-67
2021/07/01 12:21:29;;;;;;;5.25;4.72;;;18.30;88.00;;;;;;3559029;40;20060;-67
2021/07/01 12:23:58;;;;;;;5.30;4.80;;;18.30;88.00;;;;;;3561476;40;20524;-67
2021/07/01 12:26:37;;;;;;;5.07;4.57;;;18.30;88.00;;;;;;3567508;40;20025;-67
2021/07/01 12:29:25;;;;;;;5.50;5.00;;;18.30;88.40;;;;;;3559770;40;20033;-66
2021/07/01 12:31:52;;;;;;;7.65;5.82;;;18.30;88.30;;;;;;3560119;40;20417;-67
2021/07/01 12:34:20;;;;;;;6.05;5.35;;;18.30;88.50;;;;;;3565967;40;20088;-66
2021/07/01 12:37:03;;;;;;;5.85;5.25;;;18.30;88.00;;;;;;3565889;40;20036;-69
2021/07/01 12:39:30;;;;;;;6.25;4.95;;;18.20;88.20;;;;;;3566515;40;20095;-67
2021/07/01 12:42:04;;;;;;;5.10;4.70;;;18.30;88.40;;;;;;3565952;40;20033;-67
2021/07/01 12:44:33;;;;;;;10.82;4.70;;;18.30;88.90;;;;;;3565901;40;20042;-67
2021/07/01 12:47:13;;;;;;;5.25;4.75;;;18.30;88.50;;;;;;3565323;40;20040;-67
2021/07/01 12:49:39;;;;;;;4.95;4.53;;;18.30;88.50;;;;;;3564631;40;20635;-67
2021/07/01 12:52:07;;;;;;;7.60;4.88;;;18.30;88.70;;;;;;3560849;40;20358;-67
2021/07/01 12:54:32;;;;;;;4.88;4.47;;;18.30;88.30;;;;;;3563496;40;20097;-66
2021/07/01 12:57:01;;;;;;;7.50;4.78;;;18.30;88.30;;;;;;3561781;40;20482;-67
2021/07/01 12:59:32;;;;;;;5.90;4.47;;;18.30;88.60;;;;;;3565022;40;20029;-67
2021/07/01 13:02:06;;;;;;;4.55;4.15;;;18.30;88.30;;;;;;3559500;40;20088;-67
2021/07/01 13:04:34;;;;;;;4.70;4.20;;;18.20;88.40;;;;;;3560019;40;20036;-67
2021/07/01 13:07:00;;;;;;;5.57;4.78;;;18.30;88.60;;;;;;3562321;40;20032;-67